sensor_id;sensor_type;location;lat;lon;timestamp;pressure;altitude;pressure_sealevel;temperature;humidity
11268;BME280;72685;47.474;9.416;2023-11-18T00:00:00;96380.94;;;4.00;100.00
11268;BME280;72685;47.474;9.416;2023-11-18T00:02:25;96389.41;;;4.02;100.00
11268;BME280;72685;47.474;9.416;2023-11-18T00:04:51;96381.47;;;4.02;100.00
11268;BME280;72685;47.474;9.416;2023-11-18T00:07:17;96383.25;;;3.97;100.00
11268;BME280;72685;47.474;9.416;2023-11-18T00:09:42;96390.16;;;3.98;100.00
11268;BME280;72685;47.474;9.416;2023-11-18T00:12:14;96383.03;;;3.98;100.00
11268;BME280;72685;47.474;9.416;2023-11-18T00:14:39;96385.03;;;4.08;100.00
11268;BME280;72685;47.474;9.416;2023-11-18T00:17:05;96384.69;;;4.04;100.00
11268;BME280;72685;47.474;9.416;2023-11-18T00:19:31;96379.09;;;4.01;100.00
11268;BME280;72685;47.474;9.416;2023-11-18T00:21:56;96372.84;;;4.07;100.00
11268;BME280;72685;47.474;9.416;2023-11-18T00:24:21;96373.53;;;4.02;100.00
11268;BME280;72685;47.474;9.416;2023-11-18T00:26:47;96365.94;;;4.06;100.00
11268;BME280;72685;47.474;9.416;2023-11-18T00:29:12;96373.63;;;4.07;100.00
11268;BME280;72685;47.474;9.416;2023-11-18T00:31:38;96377.78;;;4.03;100.00
11268;BME280;72685;47.474;9.416;2023-11-18T00:34:03;96371.97;;;4.01;100.00
11268;BME280;72685;47.474;9.416;2023-11-18T00:36:28;96380.06;;;4.11;100.00
11268;BME280;72685;47.474;9.416;2023-11-18T00:38:54;96368.72;;;4.16;100.00
11268;BME280;72685;47.474;9.416;2023-11-18T00:41:19;96371.69;;;4.19;100.00
11268;BME280;72685;47.474;9.416;2023-11-18T00:43:45;96368.81;;;4.21;100.00
11268;BME280;72685;47.474;9.416;2023-11-18T00:46:10;96371.53;;;4.26;100.00
11268;BME280;72685;47.474;9.416;2023-11-18T00:48:36;96362.47;;;4.22;100.00
11268;BME280;72685;47.474;9.416;2023-11-18T00:51:01;96357.28;;;4.10;100.00
11268;BME280;72685;47.474;9.416;2023-11-18T00:53:27;96357.28;;;4.10;100.00
11268;BME280;72685;47.474;9.416;2023-11-18T00:55:52;96364.78;;;4.18;100.00
11268;BME280;72685;47.474;9.416;2023-11-18T00:58:17;96364.25;;;4.16;100.00
11268;BME280;72685;47.474;9.416;2023-11-18T01:00:43;96372.59;;;4.08;100.00
11268;BME280;72685;47.474;9.416;2023-11-18T01:03:08;96375.69;;;4.05;100.00
11268;BME280;72685;47.474;9.416;2023-11-18T01:05:35;96380.13;;;4.00;100.00
11268;BME280;72685;47.474;9.416;2023-11-18T01:08:00;96389.34;;;3.97;100.00
11268;BME280;72685;47.474;9.416;2023-11-18T01:10:26;96389.34;;;3.97;100.00
11268;BME280;72685;47.474;9.416;2023-11-18T01:12:52;96388.69;;;3.90;100.00
11268;BME280;72685;47.474;9.416;2023-11-18T01:15:20;96391.00;;;3.87;100.00
11268;BME280;72685;47.474;9.416;2023-11-18T01:17:45;96392.78;;;3.81;100.00
11268;BME280;72685;47.474;9.416;2023-11-18T01:20:11;96389.13;;;3.82;100.00
11268;BME280;72685;47.474;9.416;2023-11-18T01:22:38;96387.03;;;3.84;100.00
11268;BME280;72685;47.474;9.416;2023-11-18T01:25:06;96396.56;;;3.85;100.00
11268;BME280;72685;47.474;9.416;2023-11-18T01:27:33;96391.97;;;3.81;100.00
11268;BME280;72685;47.474;9.416;2023-11-18T01:29:59;96390.28;;;3.74;100.00
11268;BME280;72685;47.474;9.416;2023-11-18T01:32:25;96385.28;;;3.73;100.00
11268;BME280;72685;47.474;9.416;2023-11-18T01:34:51;96389.91;;;3.66;100.00
11268;BME280;72685;47.474;9.416;2023-11-18T01:37:17;96382.28;;;3.69;100.00
11268;BME280;72685;47.474;9.416;2023-11-18T01:39:42;96387.81;;;3.68;100.00
11268;BME280;72685;47.474;9.416;2023-11-18T01:42:08;96389.91;;;3.66;100.00
11268;BME280;72685;47.474;9.416;2023-11-18T01:44:33;96395.66;;;3.63;100.00
11268;BME280;72685;47.474;9.416;2023-11-18T01:47:01;96385.97;;;3.68;100.00
11268;BME280;72685;47.474;9.416;2023-11-18T01:49:32;96397.41;;;3.74;100.00
11268;BME280;72685;47.474;9.416;2023-11-18T01:52:02;96393.19;;;3.73;100.00
11268;BME280;72685;47.474;9.416;2023-11-18T01:54:28;96403.66;;;3.68;100.00
11268;BME280;72685;47.474;9.416;2023-11-18T01:56:54;96402.31;;;3.65;100.00
11268;BME280;72685;47.474;9.416;2023-11-18T01:59:20;96401.75;;;3.63;100.00
11268;BME280;72685;47.474;9.416;2023-11-18T02:01:51;96408.25;;;3.72;100.00
11268;BME280;72685;47.474;9.416;2023-11-18T02:04:18;96406.97;;;3.75;100.00
11268;BME280;72685;47.474;9.416;2023-11-18T02:06:45;96413.44;;;3.84;100.00
11268;BME280;72685;47.474;9.416;2023-11-18T02:09:15;96412.41;;;3.85;100.00
11268;BME280;72685;47.474;9.416;2023-11-18T02:11:54;96405.38;;;3.91;100.00
11268;BME280;72685;47.474;9.416;2023-11-18T02:14:22;96410.66;;;3.91;100.00
11268;BME280;72685;47.474;9.416;2023-11-18T02:16:52;96412.09;;;3.98;100.00
11268;BME280;72685;47.474;9.416;2023-11-18T02:19:20;96405.75;;;3.99;100.00
11268;BME280;72685;47.474;9.416;2023-11-18T02:21:50;96399.50;;;4.05;100.00
11268;BME280;72685;47.474;9.416;2023-11-18T02:24:31;96394.06;;;4.12;100.00
11268;BME280;72685;47.474;9.416;2023-11-18T02:27:02;96385.47;;;4.21;100.00
11268;BME280;72685;47.474;9.416;2023-11-18T02:29:36;96384.97;;;4.24;100.00
11268;BME280;72685;47.474;9.416;2023-11-18T02:32:28;96374.34;;;4.19;100.00
11268;BME280;72685;47.474;9.416;2023-11-18T02:35:08;96378.44;;;4.10;100.00
11268;BME280;72685;47.474;9.416;2023-11-18T02:37:38;96378.94;;;4.07;100.00
11268;BME280;72685;47.474;9.416;2023-11-18T02:40:07;96372.59;;;4.08;100.00
11268;BME280;72685;47.474;9.416;2023-11-18T02:42:37;96373.38;;;4.09;100.00
11268;BME280;72685;47.474;9.416;2023-11-18T02:45:05;96375.78;;;4.10;100.00
11268;BME280;72685;47.474;9.416;2023-11-18T02:47:32;96371.53;;;4.09;100.00
11268;BME280;72685;47.474;9.416;2023-11-18T02:49:57;96375.78;;;4.10;100.00
11268;BME280;72685;47.474;9.416;2023-11-18T02:52:33;96369.22;;;4.13;100.00
11268;BME280;72685;47.474;9.416;2023-11-18T02:54:59;96376.28;;;3.91;100.00
11268;BME280;72685;47.474;9.416;2023-11-18T02:57:25;96380.22;;;3.88;100.00
11268;BME280;72685;47.474;9.416;2023-11-18T02:59:50;96376.53;;;3.89;100.00
11268;BME280;72685;47.474;9.416;2023-11-18T03:02:15;96377.41;;;3.95;100.00
11268;BME280;72685;47.474;9.416;2023-11-18T03:04:41;96378.28;;;4.00;100.00
11268;BME280;72685;47.474;9.416;2023-11-18T03:07:09;96377.78;;;4.03;100.00
11268;BME280;72685;47.474;9.416;2023-11-18T03:09:34;96375.56;;;3.95;99.81
11268;BME280;72685;47.474;9.416;2023-11-18T03:12:01;96383.03;;;3.82;100.00
11268;BME280;72685;47.474;9.416;2023-11-18T03:14:26;96377.97;;;3.80;100.00
11268;BME280;72685;47.474;9.416;2023-11-18T03:16:53;96381.66;;;3.79;100.00
11268;BME280;72685;47.474;9.416;2023-11-18T03:19:21;96378.44;;;3.77;100.00
11268;BME280;72685;47.474;9.416;2023-11-18T03:21:51;96369.31;;;3.85;100.00
11268;BME280;72685;47.474;9.416;2023-11-18T03:24:18;96374.53;;;3.80;100.00
11268;BME280;72685;47.474;9.416;2023-11-18T03:26:44;96376.53;;;3.72;100.00
11268;BME280;72685;47.474;9.416;2023-11-18T03:29:09;96373.63;;;3.74;98.55
11268;BME280;72685;47.474;9.416;2023-11-18T03:31:36;96380.59;;;3.80;97.39
11268;BME280;72685;47.474;9.416;2023-11-18T03:34:02;96377.72;;;3.65;99.49
11268;BME280;72685;47.474;9.416;2023-11-18T03:36:27;96375.84;;;3.49;100.00
11268;BME280;72685;47.474;9.416;2023-11-18T03:38:53;96374.16;;;3.43;100.00
11268;BME280;72685;47.474;9.416;2023-11-18T03:41:18;96365.19;;;3.27;100.00
11268;BME280;72685;47.474;9.416;2023-11-18T03:43:44;96369.56;;;3.22;100.00
11268;BME280;72685;47.474;9.416;2023-11-18T03:46:10;96370.84;;;3.19;100.00
11268;BME280;72685;47.474;9.416;2023-11-18T03:48:36;96366.94;;;3.22;100.00
11268;BME280;72685;47.474;9.416;2023-11-18T03:51:01;96367.41;;;3.18;100.00
11268;BME280;72685;47.474;9.416;2023-11-18T03:53:29;96358.44;;;3.19;100.00
11268;BME280;72685;47.474;9.416;2023-11-18T03:55:54;96362.13;;;3.18;100.00
11268;BME280;72685;47.474;9.416;2023-11-18T03:58:20;96358.09;;;3.16;100.00
11268;BME280;72685;47.474;9.416;2023-11-18T04:00:45;96360.44;;;3.12;100.00
11268;BME280;72685;47.474;9.416;2023-11-18T04:03:10;96358.34;;;3.14;100.00
11268;BME280;72685;47.474;9.416;2023-11-18T04:05:37;96366.59;;;3.18;100.00
11268;BME280;72685;47.474;9.416;2023-11-18T04:08:04;96371.88;;;3.18;100.00
11268;BME280;72685;47.474;9.416;2023-11-18T04:10:29;96375.00;;;3.15;100.00
11268;BME280;72685;47.474;9.416;2023-11-18T04:12:55;96377.63;;;3.15;100.00
11268;BME280;72685;47.474;9.416;2023-11-18T04:15:20;96371.88;;;3.18;100.00
11268;BME280;72685;47.474;9.416;2023-11-18T04:17:46;96368.91;;;3.14;100.00
11268;BME280;72685;47.474;9.416;2023-11-18T04:20:11;96379.06;;;3.06;100.00
11268;BME280;72685;47.474;9.416;2023-11-18T04:22:40;96386.19;;;2.94;100.00
11268;BME280;72685;47.474;9.416;2023-11-18T04:25:08;96391.59;;;2.87;100.00
11268;BME280;72685;47.474;9.416;2023-11-18T04:27:34;96385.22;;;2.83;100.00
11268;BME280;72685;47.474;9.416;2023-11-18T04:29:59;96393.34;;;2.82;100.00
11268;BME280;72685;47.474;9.416;2023-11-18T04:32:24;96384.63;;;2.81;100.00
11268;BME280;72685;47.474;9.416;2023-11-18T04:34:50;96384.63;;;2.81;100.00
11268;BME280;72685;47.474;9.416;2023-11-18T04:37:16;96378.78;;;2.79;100.00
11268;BME280;72685;47.474;9.416;2023-11-18T04:39:43;96388.19;;;2.75;100.00
11268;BME280;72685;47.474;9.416;2023-11-18T04:42:09;96381.09;;;2.76;100.00
11268;BME280;72685;47.474;9.416;2023-11-18T04:44:34;96399.81;;;2.74;100.00
11268;BME280;72685;47.474;9.416;2023-11-18T04:46:59;96391.66;;;2.76;100.00
11268;BME280;72685;47.474;9.416;2023-11-18T04:49:26;96393.16;;;2.72;100.00
11268;BME280;72685;47.474;9.416;2023-11-18T04:51:51;96386.50;;;2.69;100.00
11268;BME280;72685;47.474;9.416;2023-11-18T04:54:17;96389.81;;;2.76;100.00
11268;BME280;72685;47.474;9.416;2023-11-18T04:56:42;96390.97;;;2.80;100.00
11268;BME280;72685;47.474;9.416;2023-11-18T04:59:09;96386.03;;;2.84;100.00
11268;BME280;72685;47.474;9.416;2023-11-18T05:01:34;96383.59;;;2.82;100.00
11268;BME280;72685;47.474;9.416;2023-11-18T05:04:00;96380.66;;;2.67;100.00
11268;BME280;72685;47.474;9.416;2023-11-18T05:06:26;96389.03;;;2.64;100.00
11268;BME280;72685;47.474;9.416;2023-11-18T05:08:52;96386.97;;;2.66;100.00
11268;BME280;72685;47.474;9.416;2023-11-18T05:11:17;96384.88;;;2.68;100.00
11268;BME280;72685;47.474;9.416;2023-11-18T05:13:43;96385.69;;;2.68;100.00
11268;BME280;72685;47.474;9.416;2023-11-18T05:16:08;96388.66;;;2.72;100.00
11268;BME280;72685;47.474;9.416;2023-11-18T05:18:36;96395.31;;;2.75;100.00
11268;BME280;72685;47.474;9.416;2023-11-18T05:21:03;96387.75;;;2.78;100.00
11268;BME280;72685;47.474;9.416;2023-11-18T05:23:30;96385.69;;;2.80;100.00
11268;BME280;72685;47.474;9.416;2023-11-18T05:25:56;96380.97;;;2.82;100.00
11268;BME280;72685;47.474;9.416;2023-11-18T05:28:22;96379.94;;;2.83;100.00
11268;BME280;72685;47.474;9.416;2023-11-18T05:30:47;96370.19;;;2.84;100.00
11268;BME280;72685;47.474;9.416;2023-11-18T05:33:13;96372.97;;;2.77;100.00
11268;BME280;72685;47.474;9.416;2023-11-18T05:35:43;96363.69;;;2.63;100.00
11268;BME280;72685;47.474;9.416;2023-11-18T05:38:15;96366.72;;;2.55;100.00
11268;BME280;72685;47.474;9.416;2023-11-18T05:40:44;96369.94;;;2.45;100.00
11268;BME280;72685;47.474;9.416;2023-11-18T05:43:19;96356.06;;;2.38;100.00
11268;BME280;72685;47.474;9.416;2023-11-18T05:45:46;96366.50;;;2.33;100.00
11268;BME280;72685;47.474;9.416;2023-11-18T05:48:31;96364.31;;;2.30;100.00
11268;BME280;72685;47.474;9.416;2023-11-18T05:50:57;96370.53;;;2.36;100.00
11268;BME280;72685;47.474;9.416;2023-11-18T05:53:22;96370.50;;;2.47;100.00
11268;BME280;72685;47.474;9.416;2023-11-18T05:55:48;96371.19;;;2.43;100.00
11268;BME280;72685;47.474;9.416;2023-11-18T05:58:13;96375.00;;;2.35;100.00
11268;BME280;72685;47.474;9.416;2023-11-18T06:00:38;96373.28;;;2.18;100.00
11268;BME280;72685;47.474;9.416;2023-11-18T06:03:04;96368.13;;;2.11;100.00
11268;BME280;72685;47.474;9.416;2023-11-18T06:05:30;96371.00;;;2.09;100.00
11268;BME280;72685;47.474;9.416;2023-11-18T06:08:00;96362.63;;;2.12;100.00
11268;BME280;72685;47.474;9.416;2023-11-18T06:10:26;96369.81;;;2.17;100.00
11268;BME280;72685;47.474;9.416;2023-11-18T06:12:51;96361.69;;;2.19;100.00
11268;BME280;72685;47.474;9.416;2023-11-18T06:15:16;96370.31;;;2.26;100.00
11268;BME280;72685;47.474;9.416;2023-11-18T06:17:44;96369.59;;;2.30;100.00
11268;BME280;72685;47.474;9.416;2023-11-18T06:20:11;96362.94;;;2.28;100.00
11268;BME280;72685;47.474;9.416;2023-11-18T06:22:39;96349.56;;;2.29;100.00
11268;BME280;72685;47.474;9.416;2023-11-18T06:25:05;96361.00;;;2.35;100.00
11268;BME280;72685;47.474;9.416;2023-11-18T06:27:32;96370.53;;;2.36;100.00
11268;BME280;72685;47.474;9.416;2023-11-18T06:29:58;96370.19;;;2.32;100.00
11268;BME280;72685;47.474;9.416;2023-11-18T06:32:23;96372.59;;;2.22;100.00
11268;BME280;72685;47.474;9.416;2023-11-18T06:34:51;96367.53;;;2.21;100.00
11268;BME280;72685;47.474;9.416;2023-11-18T06:37:17;96370.84;;;2.28;100.00
11268;BME280;72685;47.474;9.416;2023-11-18T06:39:42;96379.47;;;2.35;100.00
11268;BME280;72685;47.474;9.416;2023-11-18T06:42:11;96383.47;;;2.37;100.00
11268;BME280;72685;47.474;9.416;2023-11-18T06:44:37;96372.56;;;2.45;100.00
11268;BME280;72685;47.474;9.416;2023-11-18T06:47:03;96373.00;;;2.54;100.00
11268;BME280;72685;47.474;9.416;2023-11-18T06:49:30;96371.06;;;2.61;100.00
11268;BME280;72685;47.474;9.416;2023-11-18T06:52:00;96372.91;;;2.49;100.00
11268;BME280;72685;47.474;9.416;2023-11-18T06:54:29;96371.44;;;2.41;100.00
11268;BME280;72685;47.474;9.416;2023-11-18T06:56:55;96375.88;;;2.41;100.00
11268;BME280;72685;47.474;9.416;2023-11-18T06:59:21;96390.47;;;2.32;100.00
11268;BME280;72685;47.474;9.416;2023-11-18T07:01:46;96390.13;;;2.28;100.00
11268;BME280;72685;47.474;9.416;2023-11-18T07:04:12;96390.81;;;2.24;100.00
11268;BME280;72685;47.474;9.416;2023-11-18T07:06:37;96388.41;;;2.22;100.00
11268;BME280;72685;47.474;9.416;2023-11-18T07:09:04;96388.63;;;2.32;100.00
11268;BME280;72685;47.474;9.416;2023-11-18T07:11:37;96391.63;;;2.36;100.00
11268;BME280;72685;47.474;9.416;2023-11-18T07:14:02;96400.91;;;2.38;100.00
11268;BME280;72685;47.474;9.416;2023-11-18T07:16:28;96399.28;;;2.37;100.00
11268;BME280;72685;47.474;9.416;2023-11-18T07:18:53;96403.28;;;2.40;100.00
11268;BME280;72685;47.474;9.416;2023-11-18T07:21:19;96409.59;;;2.50;100.00
11268;BME280;72685;47.474;9.416;2023-11-18T07:23:45;96396.63;;;2.60;100.00
11268;BME280;72685;47.474;9.416;2023-11-18T07:26:10;96398.53;;;2.65;100.00
11268;BME280;72685;47.474;9.416;2023-11-18T07:28:36;96398.19;;;2.73;100.00
11268;BME280;72685;47.474;9.416;2023-11-18T07:31:01;96400.13;;;2.78;100.00
11268;BME280;72685;47.474;9.416;2023-11-18T07:33:30;96404.19;;;2.97;100.00
11268;BME280;72685;47.474;9.416;2023-11-18T07:35:59;96394.69;;;2.96;99.86
11268;BME280;72685;47.474;9.416;2023-11-18T07:38:24;96393.41;;;2.98;100.00
11268;BME280;72685;47.474;9.416;2023-11-18T07:40:51;96397.75;;;3.04;100.00
11268;BME280;72685;47.474;9.416;2023-11-18T07:43:22;96394.66;;;3.07;100.00
11268;BME280;72685;47.474;9.416;2023-11-18T07:45:47;96405.00;;;3.09;99.90
11268;BME280;72685;47.474;9.416;2023-11-18T07:48:17;96395.78;;;3.11;100.00
11268;BME280;72685;47.474;9.416;2023-11-18T07:50:43;96403.09;;;3.21;99.63
11268;BME280;72685;47.474;9.416;2023-11-18T07:53:15;96403.66;;;3.23;100.00
11268;BME280;72685;47.474;9.416;2023-11-18T07:55:41;96404.47;;;3.24;100.00
11268;BME280;72685;47.474;9.416;2023-11-18T07:58:08;96412.72;;;3.27;100.00
11268;BME280;72685;47.474;9.416;2023-11-18T08:00:41;96410.41;;;3.31;100.00
11268;BME280;72685;47.474;9.416;2023-11-18T08:03:08;96400.97;;;3.35;100.00
11268;BME280;72685;47.474;9.416;2023-11-18T08:05:44;96388.75;;;3.45;100.00
11268;BME280;72685;47.474;9.416;2023-11-18T08:08:10;96380.75;;;3.57;100.00
11268;BME280;72685;47.474;9.416;2023-11-18T08:10:37;96388.13;;;3.71;100.00
11268;BME280;72685;47.474;9.416;2023-11-18T08:13:06;96385.81;;;3.75;100.00
11268;BME280;72685;47.474;9.416;2023-11-18T08:15:44;96392.13;;;3.74;100.00
11268;BME280;72685;47.474;9.416;2023-11-18T08:18:10;96388.53;;;3.80;100.00
11268;BME280;72685;47.474;9.416;2023-11-18T08:20:37;96392.16;;;3.91;99.75
11268;BME280;72685;47.474;9.416;2023-11-18T08:23:02;96383.97;;;4.09;99.16
11268;BME280;72685;47.474;9.416;2023-11-18T08:25:30;96377.47;;;4.00;99.35
11268;BME280;72685;47.474;9.416;2023-11-18T08:27:55;96377.91;;;4.08;99.76
11268;BME280;72685;47.474;9.416;2023-11-18T08:30:20;96372.34;;;4.26;99.32
11268;BME280;72685;47.474;9.416;2023-11-18T08:32:47;96368.84;;;4.43;98.66
11268;BME280;72685;47.474;9.416;2023-11-18T08:35:13;96376.31;;;4.46;96.80
11268;BME280;72685;47.474;9.416;2023-11-18T08:37:40;96385.75;;;4.42;96.12
11268;BME280;72685;47.474;9.416;2023-11-18T08:40:07;96388.47;;;4.47;98.16
11268;BME280;72685;47.474;9.416;2023-11-18T08:42:47;96391.03;;;4.58;99.78
11268;BME280;72685;47.474;9.416;2023-11-18T08:45:20;96386.59;;;4.86;98.18
11268;BME280;72685;47.474;9.416;2023-11-18T08:47:47;96385.69;;;4.97;97.09
11268;BME280;72685;47.474;9.416;2023-11-18T08:50:16;96395.91;;;5.10;97.59
11268;BME280;72685;47.474;9.416;2023-11-18T08:52:43;96390.59;;;5.10;94.61
11268;BME280;72685;47.474;9.416;2023-11-18T08:55:13;96390.44;;;5.21;93.95
11268;BME280;72685;47.474;9.416;2023-11-18T08:57:56;96382.84;;;5.30;93.55
11268;BME280;72685;47.474;9.416;2023-11-18T09:00:29;96374.59;;;5.26;93.01
11268;BME280;72685;47.474;9.416;2023-11-18T09:03:12;96362.41;;;5.25;94.55
11268;BME280;72685;47.474;9.416;2023-11-18T09:05:51;96350.72;;;5.48;94.92
11268;BME280;72685;47.474;9.416;2023-11-18T09:08:34;96350.50;;;5.55;94.73
11268;BME280;72685;47.474;9.416;2023-11-18T09:11:08;96360.53;;;5.48;94.13
11268;BME280;72685;47.474;9.416;2023-11-18T09:13:37;96367.00;;;5.62;95.48
11268;BME280;72685;47.474;9.416;2023-11-18T09:16:05;96363.00;;;5.59;91.06
11268;BME280;72685;47.474;9.416;2023-11-18T09:18:34;96369.81;;;5.50;88.61
11268;BME280;72685;47.474;9.416;2023-11-18T09:21:03;96371.72;;;5.55;87.76
11268;BME280;72685;47.474;9.416;2023-11-18T09:23:30;96359.59;;;5.64;88.55
11268;BME280;72685;47.474;9.416;2023-11-18T09:26:05;96364.22;;;5.78;90.62
11268;BME280;72685;47.474;9.416;2023-11-18T09:28:34;96367.53;;;5.91;88.38
11268;BME280;72685;47.474;9.416;2023-11-18T09:31:04;96355.06;;;5.91;86.02
11268;BME280;72685;47.474;9.416;2023-11-18T09:33:31;96350.66;;;6.02;86.21
11268;BME280;72685;47.474;9.416;2023-11-18T09:36:02;96348.09;;;6.17;84.98
11268;BME280;72685;47.474;9.416;2023-11-18T09:38:32;96349.72;;;6.23;86.07
11268;BME280;72685;47.474;9.416;2023-11-18T09:41:01;96347.66;;;6.35;87.43
11268;BME280;72685;47.474;9.416;2023-11-18T09:43:35;96349.56;;;6.45;86.69
11268;BME280;72685;47.474;9.416;2023-11-18T09:46:14;96348.34;;;6.62;86.50
11268;BME280;72685;47.474;9.416;2023-11-18T09:48:53;96350.44;;;6.50;86.46
11268;BME280;72685;47.474;9.416;2023-11-18T09:51:38;96353.25;;;6.38;88.82
11268;BME280;72685;47.474;9.416;2023-11-18T09:54:18;96358.13;;;6.52;92.54
11268;BME280;72685;47.474;9.416;2023-11-18T10:02:13;96339.97;;;6.96;89.86
11268;BME280;72685;47.474;9.416;2023-11-18T10:04:39;96341.31;;;6.93;89.82
11268;BME280;72685;47.474;9.416;2023-11-18T10:07:09;96341.34;;;7.03;90.15
11268;BME280;72685;47.474;9.416;2023-11-18T10:09:36;96336.53;;;7.00;89.35
11268;BME280;72685;47.474;9.416;2023-11-18T10:12:07;96342.97;;;7.24;90.08
11268;BME280;72685;47.474;9.416;2023-11-18T10:14:34;96344.88;;;7.44;88.65
11268;BME280;72685;47.474;9.416;2023-11-18T10:17:03;96328.97;;;7.59;89.08
11268;BME280;72685;47.474;9.416;2023-11-18T10:19:56;96332.94;;;7.57;89.06
11268;BME280;72685;47.474;9.416;2023-11-18T10:24:49;96321.22;;;7.42;91.17
11268;BME280;72685;47.474;9.416;2023-11-18T10:27:14;96329.47;;;7.41;91.35
11268;BME280;72685;47.474;9.416;2023-11-18T10:29:40;96330.25;;;7.41;91.15
11268;BME280;72685;47.474;9.416;2023-11-18T10:32:06;96329.19;;;7.32;89.96
11268;BME280;72685;47.474;9.416;2023-11-18T10:34:45;96324.16;;;7.36;89.70
11268;BME280;72685;47.474;9.416;2023-11-18T10:37:10;96318.03;;;7.35;88.76
11268;BME280;72685;47.474;9.416;2023-11-18T10:39:36;96323.06;;;7.27;86.57
11268;BME280;72685;47.474;9.416;2023-11-18T10:42:02;96323.59;;;7.34;87.58
11268;BME280;72685;47.474;9.416;2023-11-18T10:44:29;96315.63;;;7.34;86.36
11268;BME280;72685;47.474;9.416;2023-11-18T10:46:55;96323.63;;;7.49;86.97
11268;BME280;72685;47.474;9.416;2023-11-18T10:49:32;96319.63;;;7.52;88.14
11268;BME280;72685;47.474;9.416;2023-11-18T10:52:02;96314.84;;;7.43;88.69
11268;BME280;72685;47.474;9.416;2023-11-18T10:54:32;96321.69;;;7.09;87.30
11268;BME280;72685;47.474;9.416;2023-11-18T10:57:00;96316.41;;;7.24;85.50
11268;BME280;72685;47.474;9.416;2023-11-18T10:59:32;96327.06;;;7.29;86.80
11268;BME280;72685;47.474;9.416;2023-11-18T11:01:57;96330.78;;;7.33;86.90
11268;BME280;72685;47.474;9.416;2023-11-18T11:04:23;96334.00;;;7.45;87.24
11268;BME280;72685;47.474;9.416;2023-11-18T11:06:49;96332.94;;;7.52;87.33
11268;BME280;72685;47.474;9.416;2023-11-18T11:09:25;96323.56;;;7.19;84.17
11268;BME280;72685;47.474;9.416;2023-11-18T11:11:54;96328.38;;;7.22;87.24
11268;BME280;72685;47.474;9.416;2023-11-18T11:14:22;96335.56;;;7.31;88.57
11268;BME280;72685;47.474;9.416;2023-11-18T11:17:02;96324.41;;;7.44;88.98
11268;BME280;72685;47.474;9.416;2023-11-18T11:22:24;96325.22;;;7.60;89.16
11268;BME280;72685;47.474;9.416;2023-11-18T11:27:45;96331.03;;;7.27;88.01
11268;BME280;72685;47.474;9.416;2023-11-18T11:30:23;96333.97;;;7.40;88.67
11268;BME280;72685;47.474;9.416;2023-11-18T11:32:54;96329.72;;;7.29;87.28
11268;BME280;72685;47.474;9.416;2023-11-18T11:35:33;96337.66;;;7.19;87.20
11268;BME280;72685;47.474;9.416;2023-11-18T11:38:02;96334.50;;;7.27;87.60
11268;BME280;72685;47.474;9.416;2023-11-18T11:40:36;96328.13;;;7.33;89.30
11268;BME280;72685;47.474;9.416;2023-11-18T11:43:06;96327.59;;;7.36;87.58
11268;BME280;72685;47.474;9.416;2023-11-18T11:45:35;96320.41;;;7.32;89.36
11268;BME280;72685;47.474;9.416;2023-11-18T11:48:02;96321.75;;;7.34;90.03
11268;BME280;72685;47.474;9.416;2023-11-18T11:53:49;96308.72;;;7.53;88.98
11268;BME280;72685;47.474;9.416;2023-11-18T11:56:17;96314.88;;;7.59;87.01
11268;BME280;72685;47.474;9.416;2023-11-18T11:58:47;96318.06;;;7.56;88.29
11268;BME280;72685;47.474;9.416;2023-11-18T12:01:32;96309.28;;;7.65;87.37
11268;BME280;72685;47.474;9.416;2023-11-18T12:04:03;96294.38;;;7.69;87.63
11268;BME280;72685;47.474;9.416;2023-11-18T12:06:33;96286.94;;;7.76;87.51
11268;BME280;72685;47.474;9.416;2023-11-18T12:09:01;96287.72;;;7.77;87.37
11268;BME280;72685;47.474;9.416;2023-11-18T12:11:34;96284.00;;;7.78;86.66
11268;BME280;72685;47.474;9.416;2023-11-18T12:14:06;96290.13;;;7.68;86.47
11268;BME280;72685;47.474;9.416;2023-11-18T12:17:00;96288.78;;;7.76;88.54
11268;BME280;72685;47.474;9.416;2023-11-18T12:19:33;96292.53;;;7.75;87.88
11268;BME280;72685;47.474;9.416;2023-11-18T12:22:12;96275.75;;;7.69;87.40
11268;BME280;72685;47.474;9.416;2023-11-18T12:24:44;96274.69;;;7.55;87.38
11268;BME280;72685;47.474;9.416;2023-11-18T12:27:09;96272.31;;;7.69;87.77
11268;BME280;72685;47.474;9.416;2023-11-18T12:29:41;96264.06;;;7.55;87.32
11268;BME280;72685;47.474;9.416;2023-11-18T12:32:09;96269.66;;;7.69;86.90
11268;BME280;72685;47.474;9.416;2023-11-18T12:34:53;96266.19;;;7.73;86.18
11268;BME280;72685;47.474;9.416;2023-11-18T12:43:16;96252.34;;;7.81;88.96
11268;BME280;72685;47.474;9.416;2023-11-18T12:45:44;96246.75;;;7.83;87.83
11268;BME280;72685;47.474;9.416;2023-11-18T12:48:20;96247.78;;;7.92;87.01
11268;BME280;72685;47.474;9.416;2023-11-18T12:50:53;96251.53;;;7.86;87.03
11268;BME280;72685;47.474;9.416;2023-11-18T12:53:18;96253.13;;;7.82;86.61
11268;BME280;72685;47.474;9.416;2023-11-18T12:55:44;96261.66;;;7.74;87.38
11268;BME280;72685;47.474;9.416;2023-11-18T12:58:10;96264.31;;;7.74;89.08
11268;BME280;72685;47.474;9.416;2023-11-18T13:00:39;96252.63;;;7.75;89.24
11268;BME280;72685;47.474;9.416;2023-11-18T13:03:05;96256.34;;;7.59;88.03
11268;BME280;72685;47.474;9.416;2023-11-18T13:05:35;96243.88;;;7.49;90.32
11268;BME280;72685;47.474;9.416;2023-11-18T13:08:02;96241.44;;;7.37;89.11
11268;BME280;72685;47.474;9.416;2023-11-18T13:10:28;96240.66;;;7.47;89.03
11268;BME280;72685;47.474;9.416;2023-11-18T13:12:55;96245.19;;;7.41;89.79
11268;BME280;72685;47.474;9.416;2023-11-18T13:15:24;96243.06;;;7.23;89.84
11268;BME280;72685;47.474;9.416;2023-11-18T13:18:00;96239.84;;;7.21;90.41
11268;BME280;72685;47.474;9.416;2023-11-18T13:20:26;96238.28;;;7.20;90.92
11268;BME280;72685;47.474;9.416;2023-11-18T13:22:52;96243.56;;;7.10;90.92
11268;BME280;72685;47.474;9.416;2023-11-18T13:25:22;96237.72;;;6.98;91.47
11268;BME280;72685;47.474;9.416;2023-11-18T13:27:47;96236.88;;;6.87;91.67
11268;BME280;72685;47.474;9.416;2023-11-18T13:30:13;96238.25;;;6.95;91.67
11268;BME280;72685;47.474;9.416;2023-11-18T13:32:42;96248.03;;;6.89;92.63